Enter the Airport ICAO Code

Search by Airport or City

Current Weather

KJFK | John F. Kennedy International Airport

New York City, New York, United States

Last Update 10 Minutes Ago

Mostly Cloudy Sky

Temperature of 07 ºC

Moderate to Strong Winds from NorthWest with Gusts

Temperature

07 ºC

Dew Point Temperature

02 ºC Below Zero

Relative Humidity

52.71 %

Wind Direction

NorthWest (310º, Without Significant Variations)

Wind Velocity

33 km/h (18 kt)

Gusts

46 km/h (25 kt)

Visibility

Greater than 10 Miles

Sea Level Pressure

29.68 inHg (Inches of Mercury)

Layers of Clouds

5% to 30% of Sky Covered from 914 mts (3000 ft) Above Ground Level.

60% to 90% of Sky Covered from 1372 mts (4500 ft) Above Ground Level.

METAR KJFK 052151Z 31018G25KT 10SM FEW030 BKN045 07/M02 A2968 RMK AO2 PK WND 30032/2111 SLP050 T00721017 $

Weather Forecast

KJFK | John F. Kennedy International Airport

New York City, New York, United States

Forecast valid for the next 26 Hours

From now on it is expected:

Mostly Cloudy Sky

Strong Winds from NorthWest with Gusts

In 2 hours it is expected the begining of:

Sky with Few Clouds

Moderate to Strong Winds from NorthWest with Gusts

In 8 hours it is expected the begining of:

Clear Sky

Maximum Temperature

No Data

Minimum Temperature

No Data

TAF KJFK 052031Z 0521/0624 31022G31KT P6SM BKN035 FM060000 30020G28KT P6SM FEW040 FM060600 31017G25KT P6SM SKC